sensor_id;sensor_type;location;lat;lon;timestamp;P1;durP1;ratioP1;P2;durP2;ratioP2
12719;SDS011;6424;48.520;11.228;2024-01-10T00:00:49;22.80;;;12.47;;
12719;SDS011;6424;48.520;11.228;2024-01-10T00:03:33;21.17;;;12.13;;
12719;SDS011;6424;48.520;11.228;2024-01-10T00:06:18;24.63;;;12.93;;
12719;SDS011;6424;48.520;11.228;2024-01-10T00:09:02;22.90;;;13.00;;
12719;SDS011;6424;48.520;11.228;2024-01-10T00:11:47;20.53;;;12.53;;
12719;SDS011;6424;48.520;11.228;2024-01-10T00:14:31;21.53;;;12.70;;
12719;SDS011;6424;48.520;11.228;2024-01-10T00:17:16;19.40;;;11.63;;
12719;SDS011;6424;48.520;11.228;2024-01-10T00:20:00;21.77;;;11.40;;
12719;SDS011;6424;48.520;11.228;2024-01-10T00:22:44;19.77;;;11.80;;
12719;SDS011;6424;48.520;11.228;2024-01-10T00:25:29;20.87;;;12.07;;
12719;SDS011;6424;48.520;11.228;2024-01-10T00:28:13;17.90;;;11.80;;
12719;SDS011;6424;48.520;11.228;2024-01-10T00:30:57;17.97;;;10.93;;
12719;SDS011;6424;48.520;11.228;2024-01-10T00:33:42;24.03;;;12.80;;
12719;SDS011;6424;48.520;11.228;2024-01-10T00:36:27;19.60;;;11.10;;
12719;SDS011;6424;48.520;11.228;2024-01-10T00:39:11;23.53;;;12.80;;
12719;SDS011;6424;48.520;11.228;2024-01-10T00:41:55;19.27;;;11.97;;
12719;SDS011;6424;48.520;11.228;2024-01-10T00:44:39;19.07;;;11.80;;
12719;SDS011;6424;48.520;11.228;2024-01-10T00:47:24;19.83;;;11.47;;
12719;SDS011;6424;48.520;11.228;2024-01-10T00:50:08;21.67;;;12.23;;
12719;SDS011;6424;48.520;11.228;2024-01-10T00:52:53;18.17;;;10.43;;
12719;SDS011;6424;48.520;11.228;2024-01-10T00:55:37;19.77;;;11.77;;
12719;SDS011;6424;48.520;11.228;2024-01-10T00:58:21;20.57;;;11.40;;
12719;SDS011;6424;48.520;11.228;2024-01-10T01:01:05;21.07;;;11.80;;
12719;SDS011;6424;48.520;11.228;2024-01-10T01:03:50;21.37;;;11.73;;
12719;SDS011;6424;48.520;11.228;2024-01-10T01:06:35;19.83;;;11.53;;
12719;SDS011;6424;48.520;11.228;2024-01-10T01:09:19;22.93;;;11.47;;
12719;SDS011;6424;48.520;11.228;2024-01-10T01:12:04;18.63;;;11.73;;
12719;SDS011;6424;48.520;11.228;2024-01-10T01:14:48;20.23;;;11.50;;
12719;SDS011;6424;48.520;11.228;2024-01-10T01:17:32;19.87;;;11.47;;
12719;SDS011;6424;48.520;11.228;2024-01-10T01:20:17;20.53;;;11.47;;
12719;SDS011;6424;48.520;11.228;2024-01-10T01:23:02;17.00;;;11.73;;
12719;SDS011;6424;48.520;11.228;2024-01-10T01:25:46;20.70;;;11.57;;
12719;SDS011;6424;48.520;11.228;2024-01-10T01:28:30;20.90;;;12.03;;
12719;SDS011;6424;48.520;11.228;2024-01-10T01:31:15;18.23;;;11.50;;
12719;SDS011;6424;48.520;11.228;2024-01-10T01:34:00;20.07;;;11.00;;
12719;SDS011;6424;48.520;11.228;2024-01-10T01:36:44;20.83;;;11.77;;
12719;SDS011;6424;48.520;11.228;2024-01-10T01:39:28;21.27;;;12.00;;
12719;SDS011;6424;48.520;11.228;2024-01-10T01:42:12;22.70;;;12.27;;
12719;SDS011;6424;48.520;11.228;2024-01-10T01:44:56;20.93;;;12.20;;
12719;SDS011;6424;48.520;11.228;2024-01-10T01:47:40;21.23;;;10.77;;
12719;SDS011;6424;48.520;11.228;2024-01-10T01:50:25;21.30;;;12.50;;
12719;SDS011;6424;48.520;11.228;2024-01-10T01:53:09;20.93;;;11.50;;
12719;SDS011;6424;48.520;11.228;2024-01-10T01:55:53;21.17;;;12.20;;
12719;SDS011;6424;48.520;11.228;2024-01-10T01:58:39;20.03;;;11.40;;
12719;SDS011;6424;48.520;11.228;2024-01-10T02:01:23;22.47;;;12.07;;
12719;SDS011;6424;48.520;11.228;2024-01-10T02:04:08;19.53;;;12.13;;
12719;SDS011;6424;48.520;11.228;2024-01-10T02:06:52;22.47;;;12.13;;
12719;SDS011;6424;48.520;11.228;2024-01-10T02:09:36;21.60;;;11.90;;
12719;SDS011;6424;48.520;11.228;2024-01-10T02:12:20;22.63;;;12.67;;
12719;SDS011;6424;48.520;11.228;2024-01-10T02:15:05;20.57;;;12.20;;
12719;SDS011;6424;48.520;11.228;2024-01-10T02:17:50;25.80;;;13.13;;
12719;SDS011;6424;48.520;11.228;2024-01-10T02:20:34;22.97;;;13.43;;
12719;SDS011;6424;48.520;11.228;2024-01-10T02:23:18;24.03;;;12.33;;
12719;SDS011;6424;48.520;11.228;2024-01-10T02:26:03;24.47;;;12.60;;
12719;SDS011;6424;48.520;11.228;2024-01-10T02:28:47;25.27;;;13.47;;
12719;SDS011;6424;48.520;11.228;2024-01-10T02:31:32;20.10;;;12.83;;
12719;SDS011;6424;48.520;11.228;2024-01-10T02:34:17;20.67;;;13.20;;
12719;SDS011;6424;48.520;11.228;2024-01-10T02:37:01;23.70;;;13.73;;
12719;SDS011;6424;48.520;11.228;2024-01-10T02:39:45;22.43;;;13.30;;
12719;SDS011;6424;48.520;11.228;2024-01-10T02:42:31;23.43;;;13.23;;
12719;SDS011;6424;48.520;11.228;2024-01-10T02:45:15;22.97;;;13.33;;
12719;SDS011;6424;48.520;11.228;2024-01-10T02:48:00;23.87;;;12.53;;
12719;SDS011;6424;48.520;11.228;2024-01-10T02:50:44;20.60;;;13.10;;
12719;SDS011;6424;48.520;11.228;2024-01-10T02:53:28;26.17;;;14.43;;
12719;SDS011;6424;48.520;11.228;2024-01-10T02:56:13;21.80;;;13.80;;
12719;SDS011;6424;48.520;11.228;2024-01-10T02:58:57;20.63;;;13.40;;
12719;SDS011;6424;48.520;11.228;2024-01-10T03:01:41;22.83;;;13.80;;
12719;SDS011;6424;48.520;11.228;2024-01-10T03:04:25;23.93;;;14.80;;
12719;SDS011;6424;48.520;11.228;2024-01-10T03:07:10;25.03;;;15.03;;
12719;SDS011;6424;48.520;11.228;2024-01-10T03:09:54;26.17;;;13.93;;
12719;SDS011;6424;48.520;11.228;2024-01-10T03:12:39;26.33;;;14.93;;
12719;SDS011;6424;48.520;11.228;2024-01-10T03:15:24;23.20;;;15.33;;
12719;SDS011;6424;48.520;11.228;2024-01-10T03:18:09;25.23;;;15.00;;
12719;SDS011;6424;48.520;11.228;2024-01-10T03:20:53;24.47;;;15.77;;
12719;SDS011;6424;48.520;11.228;2024-01-10T03:23:38;25.00;;;16.10;;
12719;SDS011;6424;48.520;11.228;2024-01-10T03:26:22;25.03;;;15.60;;
12719;SDS011;6424;48.520;11.228;2024-01-10T03:29:07;28.57;;;16.37;;
12719;SDS011;6424;48.520;11.228;2024-01-10T03:31:51;27.70;;;15.77;;
12719;SDS011;6424;48.520;11.228;2024-01-10T03:34:35;31.17;;;17.23;;
12719;SDS011;6424;48.520;11.228;2024-01-10T03:37:19;26.87;;;15.63;;
12719;SDS011;6424;48.520;11.228;2024-01-10T03:40:03;28.67;;;16.37;;
12719;SDS011;6424;48.520;11.228;2024-01-10T03:42:48;24.20;;;15.07;;
12719;SDS011;6424;48.520;11.228;2024-01-10T03:45:32;28.30;;;17.50;;
12719;SDS011;6424;48.520;11.228;2024-01-10T03:48:16;30.17;;;17.20;;
12719;SDS011;6424;48.520;11.228;2024-01-10T03:51:00;31.63;;;17.20;;
12719;SDS011;6424;48.520;11.228;2024-01-10T03:53:44;31.70;;;16.97;;
12719;SDS011;6424;48.520;11.228;2024-01-10T03:56:29;29.57;;;18.10;;
12719;SDS011;6424;48.520;11.228;2024-01-10T03:59:13;31.50;;;17.97;;
12719;SDS011;6424;48.520;11.228;2024-01-10T04:01:57;28.13;;;16.83;;
12719;SDS011;6424;48.520;11.228;2024-01-10T04:04:44;29.23;;;17.57;;
12719;SDS011;6424;48.520;11.228;2024-01-10T04:07:28;37.97;;;22.67;;
12719;SDS011;6424;48.520;11.228;2024-01-10T04:10:13;38.53;;;24.77;;
12719;SDS011;6424;48.520;11.228;2024-01-10T04:12:57;33.87;;;22.07;;
12719;SDS011;6424;48.520;11.228;2024-01-10T04:15:42;31.30;;;18.47;;
12719;SDS011;6424;48.520;11.228;2024-01-10T04:18:26;30.57;;;20.03;;
12719;SDS011;6424;48.520;11.228;2024-01-10T04:21:10;32.57;;;19.03;;
12719;SDS011;6424;48.520;11.228;2024-01-10T04:23:55;29.10;;;18.00;;
12719;SDS011;6424;48.520;11.228;2024-01-10T04:26:39;32.87;;;19.47;;
12719;SDS011;6424;48.520;11.228;2024-01-10T04:29:23;32.37;;;19.67;;
12719;SDS011;6424;48.520;11.228;2024-01-10T04:32:07;33.60;;;19.40;;
12719;SDS011;6424;48.520;11.228;2024-01-10T04:34:51;29.03;;;18.27;;
12719;SDS011;6424;48.520;11.228;2024-01-10T04:37:36;30.50;;;17.60;;
12719;SDS011;6424;48.520;11.228;2024-01-10T04:40:20;61.53;;;31.50;;
12719;SDS011;6424;48.520;11.228;2024-01-10T04:43:04;51.60;;;27.40;;
12719;SDS011;6424;48.520;11.228;2024-01-10T04:45:49;31.37;;;19.53;;
12719;SDS011;6424;48.520;11.228;2024-01-10T04:48:33;33.50;;;20.73;;
12719;SDS011;6424;48.520;11.228;2024-01-10T04:51:17;56.33;;;37.63;;
12719;SDS011;6424;48.520;11.228;2024-01-10T04:54:02;44.00;;;28.20;;
12719;SDS011;6424;48.520;11.228;2024-01-10T04:56:47;38.90;;;23.77;;
12719;SDS011;6424;48.520;11.228;2024-01-10T04:59:31;39.00;;;26.57;;
12719;SDS011;6424;48.520;11.228;2024-01-10T05:02:15;35.90;;;21.73;;
12719;SDS011;6424;48.520;11.228;2024-01-10T05:05:00;33.93;;;20.90;;
12719;SDS011;6424;48.520;11.228;2024-01-10T05:07:45;33.83;;;20.30;;
12719;SDS011;6424;48.520;11.228;2024-01-10T05:10:29;32.10;;;19.03;;
12719;SDS011;6424;48.520;11.228;2024-01-10T05:13:13;36.03;;;18.93;;
12719;SDS011;6424;48.520;11.228;2024-01-10T05:15:57;33.50;;;19.43;;
12719;SDS011;6424;48.520;11.228;2024-01-10T05:18:42;36.40;;;20.97;;
12719;SDS011;6424;48.520;11.228;2024-01-10T05:21:26;35.67;;;19.97;;
12719;SDS011;6424;48.520;11.228;2024-01-10T05:24:11;34.00;;;19.73;;
12719;SDS011;6424;48.520;11.228;2024-01-10T05:26:56;35.03;;;20.97;;
12719;SDS011;6424;48.520;11.228;2024-01-10T05:29:40;31.87;;;20.90;;
12719;SDS011;6424;48.520;11.228;2024-01-10T05:32:25;32.77;;;21.70;;
12719;SDS011;6424;48.520;11.228;2024-01-10T05:35:10;35.83;;;20.23;;
12719;SDS011;6424;48.520;11.228;2024-01-10T05:37:55;36.67;;;21.87;;
12719;SDS011;6424;48.520;11.228;2024-01-10T05:40:39;30.33;;;19.13;;
12719;SDS011;6424;48.520;11.228;2024-01-10T05:43:24;37.30;;;20.73;;
12719;SDS011;6424;48.520;11.228;2024-01-10T05:46:08;34.37;;;20.43;;
12719;SDS011;6424;48.520;11.228;2024-01-10T05:48:53;33.27;;;20.00;;
12719;SDS011;6424;48.520;11.228;2024-01-10T05:51:37;38.67;;;20.80;;
12719;SDS011;6424;48.520;11.228;2024-01-10T05:54:22;33.23;;;20.47;;
12719;SDS011;6424;48.520;11.228;2024-01-10T05:57:06;36.43;;;20.33;;
12719;SDS011;6424;48.520;11.228;2024-01-10T05:59:50;29.67;;;19.37;;
12719;SDS011;6424;48.520;11.228;2024-01-10T06:02:39;33.80;;;20.20;;
12719;SDS011;6424;48.520;11.228;2024-01-10T06:05:23;39.17;;;21.23;;
12719;SDS011;6424;48.520;11.228;2024-01-10T06:08:07;34.47;;;20.00;;
12719;SDS011;6424;48.520;11.228;2024-01-10T06:10:52;39.07;;;21.03;;
12719;SDS011;6424;48.520;11.228;2024-01-10T06:13:36;35.03;;;21.30;;
12719;SDS011;6424;48.520;11.228;2024-01-10T06:16:20;37.87;;;21.73;;
12719;SDS011;6424;48.520;11.228;2024-01-10T06:19:05;36.10;;;21.10;;
12719;SDS011;6424;48.520;11.228;2024-01-10T06:21:50;39.37;;;22.00;;
12719;SDS011;6424;48.520;11.228;2024-01-10T06:24:35;43.27;;;23.57;;
12719;SDS011;6424;48.520;11.228;2024-01-10T06:27:20;39.97;;;22.77;;
12719;SDS011;6424;48.520;11.228;2024-01-10T06:30:04;37.43;;;21.87;;
12719;SDS011;6424;48.520;11.228;2024-01-10T06:32:50;43.93;;;22.33;;
12719;SDS011;6424;48.520;11.228;2024-01-10T06:35:35;38.97;;;21.13;;
12719;SDS011;6424;48.520;11.228;2024-01-10T06:38:19;39.13;;;22.57;;
12719;SDS011;6424;48.520;11.228;2024-01-10T06:41:09;38.50;;;23.13;;
12719;SDS011;6424;48.520;11.228;2024-01-10T06:43:54;42.07;;;22.70;;
12719;SDS011;6424;48.520;11.228;2024-01-10T06:46:39;38.60;;;22.37;;
12719;SDS011;6424;48.520;11.228;2024-01-10T06:49:23;37.20;;;21.77;;
12719;SDS011;6424;48.520;11.228;2024-01-10T06:52:07;38.53;;;22.87;;
12719;SDS011;6424;48.520;11.228;2024-01-10T06:54:52;41.23;;;22.60;;
12719;SDS011;6424;48.520;11.228;2024-01-10T06:57:36;40.00;;;22.87;;
12719;SDS011;6424;48.520;11.228;2024-01-10T07:00:21;40.30;;;22.30;;
12719;SDS011;6424;48.520;11.228;2024-01-10T07:03:06;36.80;;;22.97;;
12719;SDS011;6424;48.520;11.228;2024-01-10T07:05:51;39.97;;;22.63;;
12719;SDS011;6424;48.520;11.228;2024-01-10T07:08:36;36.33;;;21.07;;
12719;SDS011;6424;48.520;11.228;2024-01-10T07:11:20;39.97;;;22.63;;
12719;SDS011;6424;48.520;11.228;2024-01-10T07:14:04;40.73;;;23.20;;
12719;SDS011;6424;48.520;11.228;2024-01-10T07:16:49;37.23;;;22.07;;
12719;SDS011;6424;48.520;11.228;2024-01-10T07:19:33;37.23;;;22.90;;
12719;SDS011;6424;48.520;11.228;2024-01-10T07:22:18;37.67;;;22.07;;
12719;SDS011;6424;48.520;11.228;2024-01-10T07:25:02;33.20;;;21.13;;
12719;SDS011;6424;48.520;11.228;2024-01-10T07:27:46;38.97;;;21.60;;
12719;SDS011;6424;48.520;11.228;2024-01-10T07:30:31;34.17;;;20.30;;
12719;SDS011;6424;48.520;11.228;2024-01-10T07:33:16;38.97;;;22.97;;
12719;SDS011;6424;48.520;11.228;2024-01-10T07:36:01;38.17;;;22.60;;
12719;SDS011;6424;48.520;11.228;2024-01-10T07:38:46;34.37;;;22.23;;
12719;SDS011;6424;48.520;11.228;2024-01-10T07:41:30;36.33;;;22.03;;
12719;SDS011;6424;48.520;11.228;2024-01-10T07:44:14;39.03;;;22.00;;
12719;SDS011;6424;48.520;11.228;2024-01-10T07:46:59;40.60;;;22.60;;
12719;SDS011;6424;48.520;11.228;2024-01-10T07:49:43;42.27;;;22.00;;
12719;SDS011;6424;48.520;11.228;2024-01-10T07:52:27;37.83;;;22.33;;
12719;SDS011;6424;48.520;11.228;2024-01-10T07:55:11;34.70;;;21.10;;
12719;SDS011;6424;48.520;11.228;2024-01-10T07:57:56;38.60;;;22.67;;
12719;SDS011;6424;48.520;11.228;2024-01-10T08:00:40;37.17;;;23.10;;
12719;SDS011;6424;48.520;11.228;2024-01-10T08:03:24;36.30;;;21.63;;
12719;SDS011;6424;48.520;11.228;2024-01-10T08:06:09;33.83;;;22.33;;
12719;SDS011;6424;48.520;11.228;2024-01-10T08:08:56;40.03;;;23.20;;
12719;SDS011;6424;48.520;11.228;2024-01-10T08:11:40;39.80;;;24.20;;
12719;SDS011;6424;48.520;11.228;2024-01-10T08:14:24;40.73;;;24.00;;
12719;SDS011;6424;48.520;11.228;2024-01-10T08:17:09;38.03;;;22.93;;
12719;SDS011;6424;48.520;11.228;2024-01-10T08:19:53;36.00;;;22.33;;
12719;SDS011;6424;48.520;11.228;2024-01-10T08:22:38;37.00;;;21.23;;
12719;SDS011;6424;48.520;11.228;2024-01-10T08:25:24;42.43;;;23.00;;
12719;SDS011;6424;48.520;11.228;2024-01-10T08:28:09;49.20;;;24.83;;
12719;SDS011;6424;48.520;11.228;2024-01-10T08:30:54;46.50;;;25.47;;
12719;SDS011;6424;48.520;11.228;2024-01-10T08:33:38;45.20;;;23.47;;
12719;SDS011;6424;48.520;11.228;2024-01-10T08:36:22;45.73;;;25.03;;
12719;SDS011;6424;48.520;11.228;2024-01-10T08:39:07;44.17;;;22.90;;
12719;SDS011;6424;48.520;11.228;2024-01-10T08:41:54;48.63;;;24.67;;
12719;SDS011;6424;48.520;11.228;2024-01-10T08:44:39;46.97;;;24.03;;
12719;SDS011;6424;48.520;11.228;2024-01-10T08:47:23;48.03;;;25.43;;
12719;SDS011;6424;48.520;11.228;2024-01-10T08:50:08;47.43;;;26.43;;
12719;SDS011;6424;48.520;11.228;2024-01-10T08:52:53;51.60;;;26.80;;
12719;SDS011;6424;48.520;11.228;2024-01-10T08:55:37;49.57;;;27.73;;
12719;SDS011;6424;48.520;11.228;2024-01-10T08:58:21;57.37;;;26.40;;
12719;SDS011;6424;48.520;11.228;2024-01-10T09:01:05;50.20;;;25.33;;
12719;SDS011;6424;48.520;11.228;2024-01-10T09:03:52;45.43;;;23.50;;
12719;SDS011;6424;48.520;11.228;2024-01-10T09:06:37;47.60;;;26.73;;
12719;SDS011;6424;48.520;11.228;2024-01-10T09:09:21;49.83;;;24.97;;
12719;SDS011;6424;48.520;11.228;2024-01-10T09:12:06;48.37;;;26.07;;
12719;SDS011;6424;48.520;11.228;2024-01-10T09:14:50;45.83;;;25.00;;
12719;SDS011;6424;48.520;11.228;2024-01-10T09:17:35;48.87;;;24.47;;
12719;SDS011;6424;48.520;11.228;2024-01-10T09:20:20;49.30;;;24.63;;
12719;SDS011;6424;48.520;11.228;2024-01-10T09:23:05;47.40;;;24.20;;
12719;SDS011;6424;48.520;11.228;2024-01-10T09:25:49;46.60;;;24.70;;
12719;SDS011;6424;48.520;11.228;2024-01-10T09:28:34;46.77;;;24.17;;
12719;SDS011;6424;48.520;11.228;2024-01-10T09:31:19;47.07;;;25.37;;
12719;SDS011;6424;48.520;11.228;2024-01-10T09:34:04;49.80;;;25.63;;
12719;SDS011;6424;48.520;11.228;2024-01-10T09:36:49;62.77;;;33.90;;
12719;SDS011;6424;48.520;11.228;2024-01-10T09:39:33;43.67;;;26.20;;
12719;SDS011;6424;48.520;11.228;2024-01-10T09:42:21;45.17;;;25.40;;
12719;SDS011;6424;48.520;11.228;2024-01-10T09:45:09;46.87;;;25.90;;
12719;SDS011;6424;48.520;11.228;2024-01-10T09:47:57;53.27;;;26.83;;
12719;SDS011;6424;48.520;11.228;2024-01-10T09:50:42;48.97;;;26.63;;
12719;SDS011;6424;48.520;11.228;2024-01-10T09:53:26;44.77;;;24.17;;
12719;SDS011;6424;48.520;11.228;2024-01-10T09:56:12;46.63;;;25.47;;
12719;SDS011;6424;48.520;11.228;2024-01-10T09:58:58;51.50;;;27.37;;
12719;SDS011;6424;48.520;11.228;2024-01-10T10:01:44;52.90;;;29.83;;
12719;SDS011;6424;48.520;11.228;2024-01-10T10:04:28;47.97;;;28.17;;
12719;SDS011;6424;48.520;11.228;2024-01-10T10:07:13;46.80;;;24.97;;
12719;SDS011;6424;48.520;11.228;2024-01-10T10:09:57;45.73;;;24.80;;
12719;SDS011;6424;48.520;11.228;2024-01-10T10:12:43;43.53;;;25.00;;
12719;SDS011;6424;48.520;11.228;2024-01-10T10:15:35;41.77;;;24.00;;
12719;SDS011;6424;48.520;11.228;2024-01-10T10:18:21;46.00;;;25.77;;
12719;SDS011;6424;48.520;11.228;2024-01-10T10:21:12;51.63;;;29.20;;
12719;SDS011;6424;48.520;11.228;2024-01-10T10:23:58;46.50;;;26.03;;
12719;SDS011;6424;48.520;11.228;2024-01-10T10:26:43;47.13;;;24.73;;
12719;SDS011;6424;48.520;11.228;2024-01-10T10:29:27;44.47;;;23.87;;
12719;SDS011;6424;48.520;11.228;2024-01-10T10:32:12;43.77;;;24.77;;
12719;SDS011;6424;48.520;11.228;2024-01-10T10:34:56;43.97;;;24.70;;
12719;SDS011;6424;48.520;11.228;2024-01-10T10:37:40;45.50;;;24.57;;
12719;SDS011;6424;48.520;11.228;2024-01-10T10:40:24;45.80;;;26.67;;
12719;SDS011;6424;48.520;11.228;2024-01-10T10:43:10;39.73;;;23.60;;
12719;SDS011;6424;48.520;11.228;2024-01-10T10:45:59;44.00;;;23.90;;
12719;SDS011;6424;48.520;11.228;2024-01-10T10:48:45;44.20;;;24.00;;
12719;SDS011;6424;48.520;11.228;2024-01-10T10:51:32;45.67;;;25.20;;
12719;SDS011;6424;48.520;11.228;2024-01-10T10:54:17;45.73;;;25.67;;
12719;SDS011;6424;48.520;11.228;2024-01-10T10:57:03;44.70;;;24.33;;
12719;SDS011;6424;48.520;11.228;2024-01-10T10:59:48;44.20;;;22.83;;
12719;SDS011;6424;48.520;11.228;2024-01-10T11:02:35;42.17;;;24.83;;
12719;SDS011;6424;48.520;11.228;2024-01-10T11:05:21;44.80;;;24.27;;
12719;SDS011;6424;48.520;11.228;2024-01-10T11:08:06;47.27;;;25.83;;
12719;SDS011;6424;48.520;11.228;2024-01-10T11:10:53;44.17;;;24.30;;
12719;SDS011;6424;48.520;11.228;2024-01-10T11:20:10;51.30;;;30.10;;
12719;SDS011;6424;48.520;11.228;2024-01-10T11:26:04;41.07;;;23.00;;
12719;SDS011;6424;48.520;11.228;2024-01-10T11:28:50;42.97;;;24.07;;
12719;SDS011;6424;48.520;11.228;2024-01-10T11:31:35;43.50;;;24.00;;
12719;SDS011;6424;48.520;11.228;2024-01-10T11:34:24;43.60;;;24.50;;
12719;SDS011;6424;48.520;11.228;2024-01-10T11:37:13;43.60;;;23.67;;
12719;SDS011;6424;48.520;11.228;2024-01-10T11:39:58;41.90;;;25.20;;
12719;SDS011;6424;48.520;11.228;2024-01-10T11:42:42;43.80;;;24.77;;
12719;SDS011;6424;48.520;11.228;2024-01-10T11:48:25;43.97;;;24.77;;
12719;SDS011;6424;48.520;11.228;2024-01-10T11:51:12;42.90;;;23.83;;
12719;SDS011;6424;48.520;11.228;2024-01-10T11:53:58;44.40;;;24.07;;
12719;SDS011;6424;48.520;11.228;2024-01-10T11:56:42;40.80;;;24.07;;
12719;SDS011;6424;48.520;11.228;2024-01-10T11:59:29;43.27;;;25.03;;
12719;SDS011;6424;48.520;11.228;2024-01-10T12:02:14;43.67;;;25.53;;
12719;SDS011;6424;48.520;11.228;2024-01-10T12:04:59;40.73;;;24.53;;
12719;SDS011;6424;48.520;11.228;2024-01-10T12:07:44;39.33;;;23.33;;
12719;SDS011;6424;48.520;11.228;2024-01-10T12:10:33;42.87;;;24.37;;
12719;SDS011;6424;48.520;11.228;2024-01-10T12:13:20;40.20;;;23.47;;
12719;SDS011;6424;48.520;11.228;2024-01-10T12:16:04;41.60;;;24.77;;
12719;SDS011;6424;48.520;11.228;2024-01-10T12:18:49;39.97;;;24.80;;
12719;SDS011;6424;48.520;11.228;2024-01-10T12:21:34;42.67;;;23.67;;
12719;SDS011;6424;48.520;11.228;2024-01-10T12:24:19;41.53;;;25.10;;
12719;SDS011;6424;48.520;11.228;2024-01-10T12:27:04;40.00;;;22.00;;
12719;SDS011;6424;48.520;11.228;2024-01-10T12:29:49;36.43;;;22.63;;
12719;SDS011;6424;48.520;11.228;2024-01-10T12:32:34;37.63;;;22.93;;
12719;SDS011;6424;48.520;11.228;2024-01-10T12:35:18;35.10;;;21.63;;
12719;SDS011;6424;48.520;11.228;2024-01-10T12:38:04;38.47;;;21.97;;
12719;SDS011;6424;48.520;11.228;2024-01-10T12:40:49;37.97;;;23.63;;
12719;SDS011;6424;48.520;11.228;2024-01-10T12:43:34;39.30;;;23.57;;
12719;SDS011;6424;48.520;11.228;2024-01-10T12:46:19;38.40;;;23.60;;
12719;SDS011;6424;48.520;11.228;2024-01-10T12:49:04;34.40;;;21.17;;
12719;SDS011;6424;48.520;11.228;2024-01-10T12:51:50;35.57;;;21.40;;
12719;SDS011;6424;48.520;11.228;2024-01-10T12:54:35;37.47;;;22.70;;
12719;SDS011;6424;48.520;11.228;2024-01-10T12:57:19;36.87;;;22.73;;
12719;SDS011;6424;48.520;11.228;2024-01-10T13:00:03;35.33;;;21.60;;
12719;SDS011;6424;48.520;11.228;2024-01-10T13:02:52;41.73;;;22.67;;
12719;SDS011;6424;48.520;11.228;2024-01-10T13:05:37;38.30;;;22.53;;
12719;SDS011;6424;48.520;11.228;2024-01-10T13:08:22;37.33;;;22.30;;
12719;SDS011;6424;48.520;11.228;2024-01-10T13:11:06;38.73;;;22.83;;
12719;SDS011;6424;48.520;11.228;2024-01-10T13:13:53;39.10;;;21.07;;
12719;SDS011;6424;48.520;11.228;2024-01-10T13:16:37;39.43;;;22.83;;
12719;SDS011;6424;48.520;11.228;2024-01-10T13:19:21;35.90;;;21.23;;
12719;SDS011;6424;48.520;11.228;2024-01-10T13:22:05;36.70;;;22.43;;
12719;SDS011;6424;48.520;11.228;2024-01-10T13:24:50;37.70;;;21.87;;
12719;SDS011;6424;48.520;11.228;2024-01-10T13:27:34;34.87;;;22.33;;
12719;SDS011;6424;48.520;11.228;2024-01-10T13:30:18;35.57;;;21.97;;
12719;SDS011;6424;48.520;11.228;2024-01-10T13:33:03;35.70;;;22.43;;
12719;SDS011;6424;48.520;11.228;2024-01-10T13:35:47;37.00;;;23.40;;
12719;SDS011;6424;48.520;11.228;2024-01-10T13:38:31;34.43;;;21.77;;
12719;SDS011;6424;48.520;11.228;2024-01-10T13:41:16;33.60;;;20.67;;
12719;SDS011;6424;48.520;11.228;2024-01-10T13:44:00;36.53;;;21.80;;
12719;SDS011;6424;48.520;11.228;2024-01-10T13:46:44;33.17;;;21.37;;
12719;SDS011;6424;48.520;11.228;2024-01-10T13:49:29;38.80;;;22.27;;
12719;SDS011;6424;48.520;11.228;2024-01-10T13:52:13;35.07;;;21.43;;
12719;SDS011;6424;48.520;11.228;2024-01-10T13:54:58;36.90;;;22.20;;
12719;SDS011;6424;48.520;11.228;2024-01-10T13:57:43;35.13;;;21.10;;
12719;SDS011;6424;48.520;11.228;2024-01-10T14:00:28;37.40;;;23.33;;
12719;SDS011;6424;48.520;11.228;2024-01-10T14:03:12;36.10;;;23.57;;
12719;SDS011;6424;48.520;11.228;2024-01-10T14:05:57;39.67;;;24.50;;
12719;SDS011;6424;48.520;11.228;2024-01-10T14:08:41;37.37;;;23.63;;
12719;SDS011;6424;48.520;11.228;2024-01-10T14:11:27;36.70;;;22.03;;
12719;SDS011;6424;48.520;11.228;2024-01-10T14:14:11;37.63;;;22.87;;
12719;SDS011;6424;48.520;11.228;2024-01-10T14:16:56;36.33;;;21.80;;
12719;SDS011;6424;48.520;11.228;2024-01-10T14:19:40;34.97;;;21.30;;
12719;SDS011;6424;48.520;11.228;2024-01-10T14:22:24;38.60;;;23.23;;
12719;SDS011;6424;48.520;11.228;2024-01-10T14:25:09;39.87;;;23.37;;
12719;SDS011;6424;48.520;11.228;2024-01-10T14:27:53;40.43;;;24.00;;
12719;SDS011;6424;48.520;11.228;2024-01-10T14:30:37;38.30;;;23.67;;
12719;SDS011;6424;48.520;11.228;2024-01-10T14:33:21;46.67;;;25.93;;
12719;SDS011;6424;48.520;11.228;2024-01-10T14:36:06;43.53;;;24.47;;
12719;SDS011;6424;48.520;11.228;2024-01-10T14:38:50;77.07;;;35.90;;
12719;SDS011;6424;48.520;11.228;2024-01-10T14:41:34;48.33;;;26.90;;
12719;SDS011;6424;48.520;11.228;2024-01-10T14:44:19;66.23;;;30.80;;
12719;SDS011;6424;48.520;11.228;2024-01-10T14:47:03;44.70;;;24.37;;
12719;SDS011;6424;48.520;11.228;2024-01-10T14:49:48;40.97;;;24.00;;
12719;SDS011;6424;48.520;11.228;2024-01-10T14:52:32;43.33;;;24.17;;
12719;SDS011;6424;48.520;11.228;2024-01-10T14:55:17;41.10;;;24.13;;
12719;SDS011;6424;48.520;11.228;2024-01-10T14:58:01;41.37;;;24.50;;
12719;SDS011;6424;48.520;11.228;2024-01-10T15:00:47;48.07;;;26.07;;
12719;SDS011;6424;48.520;11.228;2024-01-10T15:03:31;44.90;;;26.73;;
12719;SDS011;6424;48.520;11.228;2024-01-10T15:06:16;44.13;;;24.83;;
12719;SDS011;6424;48.520;11.228;2024-01-10T15:09:00;42.30;;;24.47;;
12719;SDS011;6424;48.520;11.228;2024-01-10T15:11:44;47.13;;;25.63;;
12719;SDS011;6424;48.520;11.228;2024-01-10T15:14:29;45.67;;;24.67;;
12719;SDS011;6424;48.520;11.228;2024-01-10T15:17:14;45.10;;;26.57;;
12719;SDS011;6424;48.520;11.228;2024-01-10T15:19:58;45.53;;;28.77;;
12719;SDS011;6424;48.520;11.228;2024-01-10T15:22:43;56.33;;;36.40;;
12719;SDS011;6424;48.520;11.228;2024-01-10T15:25:27;47.73;;;29.37;;
12719;SDS011;6424;48.520;11.228;2024-01-10T15:28:11;45.60;;;28.90;;
12719;SDS011;6424;48.520;11.228;2024-01-10T15:30:55;73.97;;;49.90;;
12719;SDS011;6424;48.520;11.228;2024-01-10T15:33:39;77.13;;;50.73;;
12719;SDS011;6424;48.520;11.228;2024-01-10T15:36:25;64.90;;;42.53;;
12719;SDS011;6424;48.520;11.228;2024-01-10T15:39:10;48.90;;;30.00;;
12719;SDS011;6424;48.520;11.228;2024-01-10T15:41:56;50.80;;;27.90;;
12719;SDS011;6424;48.520;11.228;2024-01-10T15:44:41;52.67;;;29.60;;
12719;SDS011;6424;48.520;11.228;2024-01-10T15:47:27;45.87;;;26.23;;
12719;SDS011;6424;48.520;11.228;2024-01-10T15:50:11;38.73;;;24.20;;
12719;SDS011;6424;48.520;11.228;2024-01-10T15:52:56;45.00;;;24.70;;
12719;SDS011;6424;48.520;11.228;2024-01-10T15:55:40;46.30;;;25.50;;
12719;SDS011;6424;48.520;11.228;2024-01-10T15:58:24;45.13;;;25.53;;
12719;SDS011;6424;48.520;11.228;2024-01-10T16:01:09;43.93;;;24.97;;
12719;SDS011;6424;48.520;11.228;2024-01-10T16:03:53;45.07;;;24.20;;
12719;SDS011;6424;48.520;11.228;2024-01-10T16:06:38;45.57;;;22.77;;
12719;SDS011;6424;48.520;11.228;2024-01-10T16:09:22;43.60;;;23.33;;
12719;SDS011;6424;48.520;11.228;2024-01-10T16:12:07;45.30;;;24.03;;
12719;SDS011;6424;48.520;11.228;2024-01-10T16:14:51;48.07;;;25.13;;